Terminal Aerodrome Forecast
Issued by NWS Cleveland, OH

Home | Current Version | Previous Version | Text Only | Print | Product List | Glossary On
Versions: 1 2 3 4 5 6 7 8 9 10 11 12 13 14 15 16 17
000
FTUS41 KCLE 220641 AAA
TAFCAK
TAF AMD
KCAK 220641Z 2207/2306 18005KT 1/4SM FG OVC002
      TEMPO 2207/2209 3/4SM BR OVC005
     FM220900 19007KT 2SM -SHRA OVC005
      TEMPO 2209/2213 2SM -SHRA BR OVC006
     FM221400 18010KT 5SM BR OVC012
     FM221800 19012G20KT P6SM BKN035 BKN060=

USA.gov is the U.S. government's official web portal to all federal, state and local government web resources and services.